Meteorología y climatología de Navarra
Datos de la estación - Meteo Navarra

Estación de Tudela (Montes del Cierzo) GN

Altitud 314 m.


Datos desde el 10/10/2019 hasta el 11/10/2019 en horario solar
Los datos son PROVISIONALES

Anterior Página 1 de 1 Siguiente Descargar: Formato para Excel 2000 o superior   Formato csv   Formato para OpenOffice Calc
Fecha Temperatura Humedad relativa Radiación global Insolación Precipitación Vel. viento 10 m Vel. viento 10 m Dir. viento 10 m
ºC % W/m² s l/m² m/s km/h º
10/10/2019 0:00 10.8 74 0.0 0 0.0 2.9 10.5 255
10/10/2019 0:10 10.9 73 0.0 0 0.0 2.8 10.0 263
10/10/2019 0:20 10.6 73 0.0 0 0.0 3.4 12.3 269
10/10/2019 0:30 10.2 74 0.0 0 0.0 3.1 11.3 267
10/10/2019 0:40 10.0 75 0.0 0 0.0 3.0 10.7 275
10/10/2019 0:50 9.9 75 0.0 0 0.0 2.9 10.5 277
10/10/2019 1:00 9.6 76 0.0 0 0.0 3.1 11.2 286
10/10/2019 1:10 9.6 78 0.0 0 0.0 3.1 11.2 300
10/10/2019 1:20 10.0 77 0.0 0 0.0 2.8 10.0 311
10/10/2019 1:30 10.2 76 0.0 0 0.0 2.5 8.9 315
10/10/2019 1:40 10.1 76 0.0 0 0.0 1.8 6.5 320
10/10/2019 1:50 9.5 77 0.0 0 0.0 1.6 5.8 299
10/10/2019 2:00 8.9 80 0.0 0 0.0 1.9 6.9 232
10/10/2019 2:10 8.8 81 0.0 0 0.0 2.4 8.5 228
10/10/2019 2:20 9.4 79 0.0 0 0.0 2.4 8.5 258
10/10/2019 2:30 9.8 78 0.0 0 0.0 2.2 7.8 306
10/10/2019 2:40 9.9 76 0.0 0 0.0 2.6 9.3 298
10/10/2019 2:50 9.1 78 0.0 0 0.0 2.4 8.7 281
10/10/2019 3:00 8.5 81 0.0 0 0.0 2.4 8.7 270
10/10/2019 3:10 8.5 82 0.0 0 0.0 2.3 8.2 262
10/10/2019 3:20 8.4 83 0.0 0 0.0 2.4 8.7 274
10/10/2019 3:30 8.5 83 0.0 0 0.0 2.5 9.1 283
10/10/2019 3:40 8.7 83 0.0 0 0.0 2.7 9.8 279
10/10/2019 3:50 8.7 82 0.0 0 0.0 3.2 11.3 276
10/10/2019 4:00 8.7 82 0.0 0 0.0 2.9 10.5 262
10/10/2019 4:10 8.6 82 0.0 0 0.0 2.5 9.1 269
10/10/2019 4:20 8.6 83 0.0 0 0.0 2.7 9.5 260
10/10/2019 4:30 8.4 84 0.0 0 0.0 2.2 7.7 252
10/10/2019 4:40 8.0 84 0.0 0 0.0 2.4 8.8 257
10/10/2019 4:50 7.7 86 0.0 0 0.0 2.9 10.4 256
10/10/2019 5:00 7.7 86 0.0 0 0.0 2.3 8.4 263
10/10/2019 5:10 7.6 86 0.0 0 0.0 2.7 9.9 273
10/10/2019 5:20 7.7 86 0.0 0 0.0 3.2 11.7 280
10/10/2019 5:30 8.0 85 0.0 0 0.0 3.0 10.7 283
10/10/2019 5:40 8.1 85 0.0 0 0.0 3.1 11.1 272
10/10/2019 5:50 8.0 84 0.0 0 0.0 2.8 10.2 270
10/10/2019 6:00 7.9 85 0.0 0 0.0 3.0 10.6 268
10/10/2019 6:10 7.9 86 0.0 0 0.0 2.6 9.5 255
10/10/2019 6:20 7.8 86 0.0 0 0.0 2.6 9.5 250
10/10/2019 6:30 7.6 86 10.7 0 0.0 2.7 9.9 242
10/10/2019 6:40 8.0 86 32.8 418 0.0 2.9 10.5 259
10/10/2019 6:50 8.7 82 56.6 600 0.0 2.9 10.3 263
10/10/2019 7:00 9.4 79 86.9 600 0.0 2.4 8.7 264
10/10/2019 7:10 10.1 77 116.8 600 0.0 2.5 9.0 268
10/10/2019 7:20 10.7 74 146.0 600 0.0 2.7 9.7 268
10/10/2019 7:30 11.0 72 176.4 600 0.0 2.3 8.2 273
10/10/2019 7:40 11.5 71 207.8 600 0.0 2.2 7.8 277
10/10/2019 7:50 12.1 70 240.6 600 0.0 2.3 8.1 291
10/10/2019 8:00 12.4 68 274.4 600 0.0 2.9 10.5 305
10/10/2019 8:10 13.0 67 305.8 600 0.0 2.5 9.0 307
10/10/2019 8:20 13.3 65 336.2 600 0.0 2.3 8.4 315
10/10/2019 8:30 13.9 63 365.1 600 0.0 2.3 8.1 319
10/10/2019 8:40 14.5 61 393.8 600 0.0 1.6 5.8 311
10/10/2019 8:50 14.7 60 423.3 600 0.0 1.8 6.4 297
10/10/2019 9:00 15.4 57 451.2 600 0.0 3.2 11.5 302
10/10/2019 9:10 15.6 56 477.3 600 0.0 3.3 11.8 309
10/10/2019 9:20 16.2 55 501.7 600 0.0 3.4 12.3 305
10/10/2019 9:30 16.7 54 523.4 600 0.0 2.7 9.9 315
10/10/2019 9:40 17.1 52 545.7 600 0.0 3.3 12.0 304
10/10/2019 9:50 17.5 51 565.5 600 0.0 3.4 12.2 316
10/10/2019 10:00 17.9 50 585.6 600 0.0 3.2 11.4 309
10/10/2019 10:10 18.3 47 604.4 600 0.0 2.9 10.4 311
10/10/2019 10:20 18.6 47 621.0 600 0.0 2.9 10.3 320
10/10/2019 10:30 18.8 47 636.7 600 0.0 2.7 9.8 319
10/10/2019 10:40 19.6 45 648.2 600 0.0 2.7 9.8 338
10/10/2019 10:50 19.8 44 660.1 600 0.0 2.2 7.8 322
10/10/2019 11:00 19.9 43 669.2 600 0.0 2.5 8.9 326
10/10/2019 11:10 20.0 43 676.6 600 0.0 2.1 7.5 300
10/10/2019 11:20 20.4 42 683.0 600 0.0 2.4 8.7 322
10/10/2019 11:30 20.6 41 688.7 600 0.0 2.1 7.7 359
10/10/2019 11:40 20.5 40 693.3 600 0.0 3.4 12.1 4
10/10/2019 11:50 20.2 39 697.5 600 0.0 2.4 8.7 17
10/10/2019 12:00 20.6 39 696.4 600 0.0 3.0 10.9 5
10/10/2019 12:10 20.9 38 695.4 600 0.0 2.6 9.4 4
10/10/2019 12:20 21.1 38 691.0 600 0.0 2.7 9.6 348
10/10/2019 12:30 21.5 37 686.0 600 0.0 2.4 8.5 357
10/10/2019 12:40 21.6 36 678.2 600 0.0 2.5 9.0 356
10/10/2019 12:50 21.2 34 673.4 600 0.0 2.6 9.2 3
10/10/2019 13:00 21.7 33 661.0 600 0.0 2.2 8.1 6
10/10/2019 13:10 21.8 34 648.5 600 0.0 1.9 6.8 338
10/10/2019 13:20 22.3 33 633.0 600 0.0 1.5 5.3 2
10/10/2019 13:30 22.3 33 620.6 600 0.0 2.2 7.9 360
10/10/2019 13:40 22.0 34 604.4 600 0.0 2.2 8.0 9
10/10/2019 13:50 22.4 33 586.3 600 0.0 2.0 7.1 18
10/10/2019 14:00 22.3 33 566.6 600 0.0 2.1 7.6 26
10/10/2019 14:10 22.3 34 543.2 600 0.0 0.9 3.3 55
10/10/2019 14:20 22.6 33 521.4 600 0.0 1.9 6.9 33
10/10/2019 14:30 22.8 33 497.8 600 0.0 1.5 5.2 356
10/10/2019 14:40 23.3 32 471.0 600 0.0 1.4 5.1 20
10/10/2019 14:50 23.3 33 445.3 600 0.0 1.4 5.0 332
10/10/2019 15:00 23.1 33 418.7 600 0.0 0.7 2.6 301
10/10/2019 15:10 23.7 32 389.7 600 0.0 0.5 1.7 13
10/10/2019 15:20 23.3 34 360.5 600 0.0 0.7 2.4 157
10/10/2019 15:30 22.6 35 330.9 600 0.0 1.0 3.5 179
10/10/2019 15:40 22.3 41 301.0 600 0.0 1.8 6.3 147
10/10/2019 15:50 22.2 37 273.2 600 0.0 0.4 1.4 127
10/10/2019 16:00 22.9 38 239.5 600 0.0 0.7 2.3 144
10/10/2019 16:10 22.5 39 201.5 600 0.0 0.5 1.8 134
10/10/2019 16:20 22.3 39 128.1 452 0.0 1.2 4.3 163
10/10/2019 16:30 22.0 38 67.2 0 0.0 0.8 3.0 139
10/10/2019 16:40 22.1 38 39.5 0 0.0 0.2 0.6 121
10/10/2019 16:50 21.2 41 28.9 0 0.0 0.2 0.7 122
10/10/2019 17:00 20.5 43 22.5 0 0.0 0.6 2.2 122
10/10/2019 17:10 19.6 45 14.5 0 0.0 0.6 2.1 127
10/10/2019 17:20 18.8 48 0.0 0 0.0 0.0 0.0 132
10/10/2019 17:30 18.4 48 0.0 0 0.0 0.2 0.7 134
10/10/2019 17:40 18.2 48 0.0 0 0.0 0.9 3.2 194
10/10/2019 17:50 17.4 51 0.0 0 0.0 2.5 9.0 200
10/10/2019 18:00 17.0 52 0.0 0 0.0 2.4 8.5 191
10/10/2019 18:10 16.9 50 0.0 0 0.0 3.1 11.1 182
10/10/2019 18:20 17.4 48 0.0 0 0.0 3.2 11.4 181
10/10/2019 18:30 17.4 49 0.0 0 0.0 3.1 11.1 181
10/10/2019 18:40 17.1 50 0.0 0 0.0 3.4 12.3 183
10/10/2019 18:50 17.0 51 0.0 0 0.0 3.3 11.9 188
10/10/2019 19:00 17.2 51 0.0 0 0.0 3.6 12.8 188
10/10/2019 19:10 17.1 51 0.0 0 0.0 3.1 11.2 189
10/10/2019 19:20 16.9 52 0.0 0 0.0 3.4 12.3 188
10/10/2019 19:30 17.0 51 0.0 0 0.0 3.3 11.8 192
10/10/2019 19:40 16.7 52 0.0 0 0.0 3.5 12.5 191
10/10/2019 19:50 16.7 52 0.0 0 0.0 3.5 12.4 189
10/10/2019 20:00 16.3 53 0.0 0 0.0 3.4 12.3 188
10/10/2019 20:10 16.3 52 0.0 0 0.0 3.1 11.2 188
10/10/2019 20:20 16.0 53 0.0 0 0.0 2.2 8.1 178
10/10/2019 20:30 15.1 58 0.0 0 0.0 0.5 1.8 122
10/10/2019 20:40 14.9 60 0.0 0 0.0 2.1 7.5 138
10/10/2019 20:50 14.8 59 0.0 0 0.0 2.0 7.2 134
10/10/2019 21:00 14.8 59 0.0 0 0.0 1.3 4.7 148
10/10/2019 21:10 14.5 59 0.0 0 0.0 1.1 3.9 182
10/10/2019 21:20 14.4 59 0.0 0 0.0 2.5 8.8 172
10/10/2019 21:30 14.0 61 0.0 0 0.0 1.8 6.4 140
10/10/2019 21:40 12.9 67 0.0 0 0.0 1.3 4.6 36
10/10/2019 21:50 12.9 68 0.0 0 0.0 0.9 3.3 106
10/10/2019 22:00 12.7 69 0.0 0 0.0 0.3 1.2 134
10/10/2019 22:10 12.8 68 0.0 0 0.0 0.7 2.3 172
10/10/2019 22:20 13.1 65 0.0 0 0.0 1.2 4.2 148
10/10/2019 22:30 12.9 66 0.0 0 0.0 2.5 9.1 120
10/10/2019 22:40 12.0 72 0.0 0 0.0 2.9 10.5 117
10/10/2019 22:50 11.8 73 0.0 0 0.0 3.0 10.7 124
10/10/2019 23:00 11.5 74 0.0 0 0.0 2.5 8.9 112
10/10/2019 23:10 11.2 74 0.0 0 0.0 2.4 8.6 124
10/10/2019 23:20 11.3 72 0.0 0 0.0 1.5 5.4 132
10/10/2019 23:30 11.7 69 0.0 0 0.0 0.3 1.0 168
10/10/2019 23:40 12.0 68 0.0 0 0.0 1.0 3.7 165
10/10/2019 23:50 12.3 67 0.0 0 0.0 1.1 3.8 170
Anterior Página 1 de 1 Siguiente

NOTA: Tipo de datos según el color:
   - Valores diarios o 10 minutos correctos
   - Valores diarios calculados a partir de un número de datos 10 minutos menor que 144 y mayor que 120, o de un número de datos semihorarios menor que 48 y mayor que 40 (caso de las estaciones de Riegos de Navarra y del MARM)
   - Valores diez minutos estimados


Contacto        Enlaces        Aviso legal